createdAt,value
2019-05-23T00:01:33.673Z,84.90
2019-05-23T00:04:41.899Z,85.20
2019-05-23T00:07:48.612Z,85.10
2019-05-23T00:10:56.649Z,85.50
2019-05-23T00:14:07.187Z,85.40
2019-05-23T00:16:57.151Z,85.90
2019-05-23T00:19:47.579Z,86.00
2019-05-23T00:22:36.301Z,86.20
2019-05-23T00:25:25.803Z,86.50
2019-05-23T00:28:17.097Z,86.80
2019-05-23T00:31:10.202Z,87.00
2019-05-23T00:34:08.565Z,87.10
2019-05-23T00:37:05.087Z,86.80
2019-05-23T00:39:54.314Z,86.80
2019-05-23T00:42:43.601Z,86.70
2019-05-23T00:45:33.404Z,86.30
2019-05-23T00:48:24.137Z,86.00
2019-05-23T00:51:12.725Z,86.30
2019-05-23T00:54:02.797Z,86.10
2019-05-23T00:56:52.119Z,86.50
2019-05-23T00:59:42.094Z,86.20
2019-05-23T01:02:32.258Z,86.20
2019-05-23T01:05:20.929Z,86.50
2019-05-23T01:08:11.022Z,86.40
2019-05-23T01:11:00.169Z,86.30
2019-05-23T01:13:48.922Z,86.00
2019-05-23T01:16:40.136Z,85.70
2019-05-23T01:19:29.875Z,85.60
2019-05-23T01:22:18.823Z,85.70
2019-05-23T01:25:09.320Z,86.40
2019-05-23T01:27:58.202Z,86.30
2019-05-23T01:30:51.849Z,86.60
2019-05-23T01:33:40.198Z,87.10
2019-05-23T01:36:30.114Z,86.70
2019-05-23T01:39:19.361Z,86.80
2019-05-23T01:42:09.778Z,86.70
2019-05-23T01:45:00.322Z,87.10
2019-05-23T01:47:50.482Z,87.20
2019-05-23T01:50:39.483Z,87.10
2019-05-23T01:53:29.929Z,87.30
2019-05-23T01:56:18.793Z,87.00
2019-05-23T01:59:08.451Z,87.00
2019-05-23T02:01:57.795Z,87.30
2019-05-23T02:04:46.695Z,87.40
2019-05-23T02:07:37.466Z,87.30
2019-05-23T02:10:26.417Z,87.20
2019-05-23T02:13:15.611Z,87.20
2019-05-23T02:16:05.579Z,87.30
2019-05-23T02:18:54.388Z,87.20
2019-05-23T02:21:44.874Z,87.20
2019-05-23T02:24:34.080Z,87.10
2019-05-23T02:27:23.729Z,86.60
2019-05-23T02:30:33.313Z,86.40
2019-05-23T02:33:07.942Z,86.70
2019-05-23T02:35:57.266Z,86.60
2019-05-23T02:38:54.331Z,86.50
2019-05-23T02:41:45.406Z,86.50
2019-05-23T02:44:34.849Z,86.40
2019-05-23T02:47:26.108Z,86.70
2019-05-23T02:50:17.906Z,86.70
2019-05-23T02:53:09.714Z,86.40
2019-05-23T02:56:01.736Z,86.20
2019-05-23T02:59:05.445Z,85.90
2019-05-23T03:02:30.456Z,85.80
2019-05-23T03:05:19.674Z,85.80
2019-05-23T03:08:10.291Z,85.70
2019-05-23T03:11:10.477Z,85.20
2019-05-23T03:13:59.808Z,85.30
2019-05-23T03:16:52.242Z,85.40
2019-05-23T03:19:46.565Z,85.30
2019-05-23T03:22:40.732Z,85.10
2019-05-23T03:25:39.970Z,85.00
2019-05-23T03:28:32.721Z,85.20
2019-05-23T03:31:32.148Z,85.50
2019-05-23T03:34:20.745Z,85.50
2019-05-23T03:37:10.324Z,85.50
2019-05-23T03:39:59.805Z,85.50
2019-05-23T03:42:48.561Z,85.20
2019-05-23T03:45:39.672Z,85.00
2019-05-23T03:48:28.664Z,84.80
2019-05-23T03:51:17.378Z,84.50
2019-05-23T03:54:06.013Z,84.40
2019-05-23T03:56:55.062Z,84.10
2019-05-23T03:59:46.556Z,83.90
2019-05-23T04:02:36.689Z,83.90
2019-05-23T04:05:24.939Z,83.50
2019-05-23T04:08:15.488Z,83.10
2019-05-23T04:11:04.125Z,82.90
2019-05-23T04:13:52.958Z,82.90
2019-05-23T04:16:41.524Z,82.20
2019-05-23T04:19:29.913Z,82.30
2019-05-23T04:22:18.489Z,82.20
2019-05-23T04:25:09.929Z,81.60
2019-05-23T04:27:59.018Z,81.50
2019-05-23T04:30:47.931Z,81.40
2019-05-23T04:33:36.789Z,81.40
2019-05-23T04:36:25.650Z,81.00
2019-05-23T04:39:14.376Z,80.50
2019-05-23T04:42:03.638Z,80.80
2019-05-23T04:44:52.158Z,81.00
2019-05-23T04:47:40.919Z,81.40
2019-05-23T04:50:29.586Z,81.60
2019-05-23T04:53:20.045Z,81.80
2019-05-23T04:56:08.544Z,81.80
2019-05-23T04:58:57.380Z,81.50
2019-05-23T05:01:47.172Z,80.80
2019-05-23T05:04:35.952Z,79.90
2019-05-23T05:07:24.734Z,79.50
2019-05-23T05:10:17.337Z,78.50
2019-05-23T05:13:06.099Z,78.60
2019-05-23T05:15:55.761Z,77.10
2019-05-23T05:18:45.003Z,74.60
2019-05-23T05:21:34.093Z,74.70
2019-05-23T05:24:22.934Z,75.20
2019-05-23T05:27:12.750Z,75.10
2019-05-23T05:30:02.118Z,75.10
2019-05-23T05:32:54.116Z,75.40
2019-05-23T05:35:43.952Z,74.90
2019-05-23T05:38:33.760Z,75.00
2019-05-23T05:41:22.411Z,74.40
2019-05-23T05:44:11.794Z,73.90
2019-05-23T05:47:01.183Z,72.20
2019-05-23T05:49:49.703Z,73.40
2019-05-23T05:52:40.483Z,72.60
2019-05-23T05:55:29.133Z,72.70
2019-05-23T05:58:17.858Z,73.00
2019-05-23T06:01:12.095Z,72.30
2019-05-23T06:04:00.939Z,72.50
2019-05-23T06:07:00.835Z,73.10
2019-05-23T06:09:52.060Z,72.80
2019-05-23T06:12:41.138Z,72.30
2019-05-23T06:15:33.007Z,71.40
2019-05-23T06:18:22.096Z,71.10
2019-05-23T06:21:12.663Z,71.30
2019-05-23T06:24:01.620Z,70.80
2019-05-23T06:26:50.575Z,71.20
2019-05-23T06:29:38.925Z,71.00
2019-05-23T06:32:28.013Z,70.60
2019-05-23T06:35:16.697Z,69.70
2019-05-23T06:38:06.376Z,68.60
2019-05-23T06:40:56.251Z,69.00
2019-05-23T06:43:45.497Z,68.40
2019-05-23T06:46:33.995Z,69.10
2019-05-23T06:49:22.580Z,67.20
2019-05-23T06:52:11.368Z,66.80
2019-05-23T06:55:00.520Z,66.20
2019-05-23T06:57:48.854Z,64.90
2019-05-23T07:00:38.539Z,63.90
2019-05-23T07:03:41.719Z,63.60
2019-05-23T07:06:21.765Z,62.90
2019-05-23T07:09:19.636Z,62.50
2019-05-23T07:12:08.727Z,60.80
2019-05-23T07:14:58.061Z,61.30
2019-05-23T07:17:46.881Z,62.10
2019-05-23T07:20:35.377Z,61.90
2019-05-23T07:23:24.329Z,61.90
2019-05-23T07:26:13.810Z,62.60
2019-05-23T07:29:02.741Z,62.90
2019-05-23T07:31:52.076Z,61.70
2019-05-23T07:34:41.161Z,61.90
2019-05-23T07:37:29.993Z,60.00
2019-05-23T07:40:19.369Z,60.00
2019-05-23T07:43:08.573Z,60.80
2019-05-23T07:45:58.557Z,59.20
2019-05-23T07:48:47.320Z,60.60
2019-05-23T07:51:36.073Z,62.10
2019-05-23T07:54:28.686Z,61.40
2019-05-23T07:57:17.776Z,61.40
2019-05-23T08:00:08.340Z,61.20
2019-05-23T08:02:59.146Z,60.10
2019-05-23T08:05:48.871Z,59.80
2019-05-23T08:08:37.632Z,60.60
2019-05-23T08:11:26.886Z,61.40
2019-05-23T08:14:15.482Z,61.20
2019-05-23T08:17:05.528Z,60.10
2019-05-23T08:19:54.387Z,59.80
2019-05-23T08:22:43.332Z,59.50
2019-05-23T08:25:32.307Z,59.00
2019-05-23T08:28:21.641Z,59.00
2019-05-23T08:31:10.404Z,60.00
2019-05-23T08:34:00.301Z,59.40
2019-05-23T08:36:49.377Z,59.00
2019-05-23T08:39:38.475Z,58.10
2019-05-23T08:42:27.567Z,58.20
2019-05-23T08:45:18.133Z,57.00
2019-05-23T08:48:06.719Z,56.50
2019-05-23T08:50:56.179Z,57.60
2019-05-23T08:53:44.882Z,58.00
2019-05-23T08:56:33.475Z,58.10
2019-05-23T08:59:23.059Z,56.00
2019-05-23T09:02:12.629Z,57.40
2019-05-23T09:05:04.898Z,54.00
2019-05-23T09:07:52.282Z,53.50
2019-05-23T09:10:42.342Z,53.30
2019-05-23T09:13:32.168Z,54.10
2019-05-23T09:16:21.011Z,54.00
2019-05-23T09:19:10.336Z,54.40
2019-05-23T09:21:59.177Z,54.70
2019-05-23T09:24:48.018Z,54.40
2019-05-23T09:27:37.108Z,53.70
2019-05-23T09:30:26.431Z,53.00
2019-05-23T09:33:15.273Z,55.50
2019-05-23T09:36:04.784Z,55.30
2019-05-23T09:38:53.193Z,55.00
2019-05-23T09:41:41.838Z,55.20
2019-05-23T09:44:30.660Z,54.90
2019-05-23T09:47:19.393Z,54.20
2019-05-23T09:50:11.825Z,56.10
2019-05-23T09:53:00.838Z,55.70
2019-05-23T09:55:49.582Z,55.50
2019-05-23T09:58:38.511Z,55.70
2019-05-23T10:01:27.618Z,55.90
2019-05-23T10:04:16.450Z,54.50
2019-05-23T10:07:05.775Z,53.80
2019-05-23T10:09:55.004Z,53.30
2019-05-23T10:12:43.535Z,53.60
2019-05-23T10:15:38.445Z,53.30
2019-05-23T10:18:27.031Z,52.40
2019-05-23T10:21:15.626Z,52.10
2019-05-23T10:24:05.443Z,51.70
2019-05-23T10:26:54.272Z,51.40
2019-05-23T10:29:43.620Z,50.90
2019-05-23T10:32:32.451Z,50.70
2019-05-23T10:35:21.362Z,50.20
2019-05-23T10:38:10.070Z,50.10
2019-05-23T10:40:59.214Z,50.80
2019-05-23T10:43:48.128Z,49.90
2019-05-23T10:46:37.388Z,49.10
2019-05-23T10:49:26.238Z,48.80
2019-05-23T10:52:15.310Z,48.40
2019-05-23T10:55:05.136Z,49.20
2019-05-23T10:57:54.223Z,47.80
2019-05-23T11:00:44.385Z,48.10
2019-05-23T11:03:33.620Z,48.00
2019-05-23T11:06:22.225Z,47.60
2019-05-23T11:09:12.594Z,47.60
2019-05-23T11:12:02.106Z,46.90
2019-05-23T11:14:50.953Z,47.00
2019-05-23T11:17:39.805Z,48.00
2019-05-23T11:20:28.620Z,47.50
2019-05-23T11:23:19.192Z,47.20
2019-05-23T11:26:09.251Z,47.60
2019-05-23T11:28:58.336Z,46.70
2019-05-23T11:31:47.485Z,47.00
2019-05-23T11:34:36.533Z,46.70
2019-05-23T11:37:25.444Z,46.70
2019-05-23T11:40:14.032Z,46.50
2019-05-23T11:43:03.029Z,46.90
2019-05-23T11:45:53.582Z,46.50
2019-05-23T11:48:42.671Z,46.70
2019-05-23T11:51:31.377Z,46.30
2019-05-23T11:54:20.855Z,45.50
2019-05-23T11:57:09.970Z,44.60
2019-05-23T11:59:59.263Z,44.20
2019-05-23T12:02:48.996Z,43.20
2019-05-23T12:05:37.919Z,43.40
2019-05-23T12:08:27.590Z,43.50
2019-05-23T12:11:17.090Z,43.80
2019-05-23T12:14:06.035Z,43.30
2019-05-23T12:16:56.721Z,43.50
2019-05-23T12:19:45.307Z,44.10
2019-05-23T12:22:40.226Z,43.10
2019-05-23T12:25:32.525Z,42.00
2019-05-23T12:28:22.811Z,40.70
2019-05-23T12:31:11.672Z,40.60
2019-05-23T12:34:00.407Z,41.50
2019-05-23T12:36:49.174Z,41.50
2019-05-23T12:39:38.247Z,40.90
2019-05-23T12:42:26.665Z,41.70
2019-05-23T12:45:16.421Z,41.20
2019-05-23T12:48:06.722Z,41.40
2019-05-23T12:51:08.852Z,41.50
2019-05-23T12:53:57.925Z,40.20
2019-05-23T12:56:48.943Z,39.70
2019-05-23T12:59:36.849Z,38.50
2019-05-23T13:02:27.355Z,36.20
2019-05-23T13:05:15.992Z,36.30
2019-05-23T13:08:06.500Z,35.30
2019-05-23T13:10:55.633Z,34.90
2019-05-23T13:13:44.366Z,35.70
2019-05-23T13:16:34.190Z,34.10
2019-05-23T13:19:22.949Z,33.90
2019-05-23T13:22:13.077Z,33.30
2019-05-23T13:25:01.801Z,34.00
2019-05-23T13:27:50.301Z,35.30
2019-05-23T13:30:39.396Z,35.70
2019-05-23T13:33:27.981Z,35.30
2019-05-23T13:36:16.916Z,33.20
2019-05-23T13:39:08.452Z,32.60
2019-05-23T13:41:56.998Z,33.50
2019-05-23T13:44:46.629Z,33.60
2019-05-23T13:47:35.706Z,33.10
2019-05-23T13:50:25.043Z,31.50
2019-05-23T13:53:13.724Z,32.60
2019-05-23T13:56:02.483Z,32.70
2019-05-23T13:58:51.623Z,33.00
2019-05-23T14:01:40.397Z,33.00
2019-05-23T14:04:29.053Z,31.50
2019-05-23T14:07:17.588Z,32.00
2019-05-23T14:10:08.637Z,34.50
2019-05-23T14:12:57.724Z,35.20
2019-05-23T14:15:48.279Z,35.60
2019-05-23T14:18:38.106Z,36.30
2019-05-23T14:21:28.474Z,36.20
2019-05-23T14:24:16.835Z,34.70
2019-05-23T14:27:07.083Z,35.40
2019-05-23T14:29:55.728Z,35.80
2019-05-23T14:32:55.348Z,36.00
2019-05-23T14:35:45.426Z,34.80
2019-05-23T14:38:35.483Z,35.20
2019-05-23T14:41:24.463Z,36.30
2019-05-23T14:44:13.298Z,38.30
2019-05-23T14:47:18.938Z,40.80
2019-05-23T14:50:09.994Z,40.50
2019-05-23T14:53:00.549Z,43.40
2019-05-23T14:55:50.130Z,47.00
2019-05-23T14:58:38.875Z,48.70
2019-05-23T15:01:29.773Z,49.50
2019-05-23T15:04:18.410Z,51.90
2019-05-23T15:07:07.124Z,52.80
2019-05-23T15:09:55.579Z,54.50
2019-05-23T15:12:43.989Z,55.90
2019-05-23T15:15:32.753Z,56.70
2019-05-23T15:18:21.406Z,58.70
2019-05-23T15:21:10.424Z,60.70
2019-05-23T15:23:59.512Z,60.60
2019-05-23T15:26:48.601Z,61.10
2019-05-23T15:29:37.187Z,61.90
2019-05-23T15:32:25.605Z,62.00
2019-05-23T15:35:14.368Z,62.70
2019-05-23T15:38:03.224Z,63.00
2019-05-23T15:40:52.097Z,62.80
2019-05-23T15:43:40.898Z,62.90
2019-05-23T15:46:29.997Z,63.10
2019-05-23T15:49:19.554Z,63.30
2019-05-23T15:52:18.969Z,63.40
2019-05-23T15:55:25.702Z,64.40
2019-05-23T15:58:22.118Z,65.10
2019-05-23T16:01:13.250Z,65.20
2019-05-23T16:04:03.334Z,65.10
2019-05-23T16:06:52.037Z,65.40
2019-05-23T16:09:40.239Z,64.60
2019-05-23T16:12:28.859Z,64.90
2019-05-23T16:15:18.591Z,64.90
2019-05-23T16:18:07.930Z,66.40
2019-05-23T16:20:58.364Z,66.50
2019-05-23T16:23:47.664Z,67.00
2019-05-23T16:26:38.421Z,66.80
2019-05-23T16:29:29.998Z,67.50
2019-05-23T16:32:25.693Z,67.80
2019-05-23T16:35:16.741Z,67.70
2019-05-23T16:38:05.622Z,68.20
2019-05-23T16:40:54.207Z,68.30
2019-05-23T16:43:42.805Z,68.60
2019-05-23T16:46:31.645Z,69.50
2019-05-23T16:49:20.733Z,70.10
2019-05-23T16:52:09.320Z,70.70
2019-05-23T16:54:59.047Z,71.40
2019-05-23T16:57:54.716Z,71.00
2019-05-23T17:00:53.951Z,70.40
2019-05-23T17:04:03.017Z,69.60
2019-05-23T17:06:53.124Z,70.20
2019-05-23T17:10:07.589Z,70.70
2019-05-23T17:12:47.217Z,70.30
2019-05-23T17:15:40.174Z,70.80
2019-05-23T17:18:33.023Z,71.90
2019-05-23T17:21:41.271Z,71.50
2019-05-23T17:24:31.807Z,72.10
2019-05-23T17:27:27.632Z,72.30
2019-05-23T17:30:18.766Z,72.40
2019-05-23T17:33:08.675Z,72.40
2019-05-23T17:35:57.683Z,71.90
2019-05-23T17:38:46.354Z,72.00
2019-05-23T17:41:34.855Z,72.10
2019-05-23T17:44:23.585Z,72.20
2019-05-23T17:47:12.624Z,71.90
2019-05-23T17:50:01.061Z,72.30
2019-05-23T17:52:50.790Z,72.40
2019-05-23T17:55:39.632Z,72.20
2019-05-23T17:58:28.553Z,72.10
2019-05-23T18:01:17.503Z,72.70
2019-05-23T18:04:06.405Z,74.80
2019-05-23T18:06:54.999Z,75.70
2019-05-23T18:09:43.422Z,76.20
2019-05-23T18:12:31.940Z,75.70
2019-05-23T18:15:21.586Z,75.80
2019-05-23T18:18:10.598Z,75.10
2019-05-23T18:21:00.065Z,74.80
2019-05-23T18:23:49.262Z,74.80
2019-05-23T18:26:38.103Z,74.80
2019-05-23T18:29:26.935Z,75.20
2019-05-23T18:32:17.254Z,75.60
2019-05-23T18:35:09.543Z,76.20
2019-05-23T18:37:58.620Z,76.90
2019-05-23T18:41:01.539Z,77.00
2019-05-23T18:43:38.214Z,77.10
2019-05-23T18:46:28.240Z,77.30
2019-05-23T18:49:16.518Z,77.70
2019-05-23T18:52:06.748Z,77.90
2019-05-23T18:54:55.838Z,78.20
2019-05-23T18:57:44.432Z,78.20
2019-05-23T19:00:52.810Z,78.90
2019-05-23T19:03:41.279Z,79.60
2019-05-23T19:06:30.649Z,79.70
2019-05-23T19:09:20.860Z,80.00
2019-05-23T19:12:09.701Z,80.80
2019-05-23T19:14:58.356Z,81.50
2019-05-23T19:17:47.092Z,82.10
2019-05-23T19:20:36.524Z,82.50
2019-05-23T19:23:25.856Z,82.40
2019-05-23T19:26:15.193Z,82.90
2019-05-23T19:29:05.272Z,83.50
2019-05-23T19:31:53.988Z,82.70
2019-05-23T19:34:43.845Z,82.50
2019-05-23T19:37:32.764Z,82.30
2019-05-23T19:40:21.845Z,83.50
2019-05-23T19:43:10.585Z,83.80
2019-05-23T19:45:59.771Z,83.60
2019-05-23T19:48:48.764Z,83.50
2019-05-23T19:51:37.356Z,82.80
2019-05-23T19:54:26.208Z,82.80
2019-05-23T19:57:16.125Z,82.70
2019-05-23T20:00:07.899Z,83.20
2019-05-23T20:03:03.531Z,84.10
2019-05-23T20:05:51.649Z,83.60
2019-05-23T20:08:40.613Z,83.60
2019-05-23T20:11:29.233Z,84.70
2019-05-23T20:14:18.037Z,84.70
2019-05-23T20:17:07.064Z,84.90
2019-05-23T20:19:55.526Z,84.30
2019-05-23T20:22:44.015Z,83.90
2019-05-23T20:25:33.511Z,83.80
2019-05-23T20:28:22.589Z,83.70
2019-05-23T20:31:11.767Z,83.60
2019-05-23T20:34:00.758Z,83.70
2019-05-23T20:36:49.203Z,84.00
2019-05-23T20:39:37.897Z,83.80
2019-05-23T20:42:27.232Z,83.40
2019-05-23T20:45:15.719Z,83.20
2019-05-23T20:48:05.795Z,82.80
2019-05-23T20:50:54.377Z,82.90
2019-05-23T20:53:44.003Z,82.50
2019-05-23T20:56:32.574Z,81.70
2019-05-23T20:59:21.641Z,82.20
2019-05-23T21:02:10.253Z,82.80
2019-05-23T21:04:58.823Z,83.60
2019-05-23T21:07:48.650Z,84.10
2019-05-23T21:10:45.673Z,84.80
2019-05-23T21:13:34.111Z,84.80
2019-05-23T21:16:22.543Z,85.70
2019-05-23T21:19:11.136Z,85.70
2019-05-23T21:21:59.761Z,85.90
2019-05-23T21:24:48.120Z,84.50
2019-05-23T21:27:36.641Z,84.70
2019-05-23T21:30:25.754Z,84.50
2019-05-23T21:33:14.921Z,83.60
2019-05-23T21:36:03.998Z,83.20
2019-05-23T21:38:52.762Z,83.20
2019-05-23T21:41:41.604Z,83.20
2019-05-23T21:44:29.953Z,83.50
2019-05-23T21:47:18.788Z,84.20
2019-05-23T21:50:07.786Z,84.40
2019-05-23T21:52:56.227Z,85.00
2019-05-23T21:55:44.927Z,85.40
2019-05-23T21:58:33.494Z,85.60
2019-05-23T22:01:24.468Z,86.00
2019-05-23T22:04:30.573Z,86.30
2019-05-23T22:07:19.188Z,86.70
2019-05-23T22:10:08.828Z,87.60
2019-05-23T22:13:04.336Z,88.30
2019-05-23T22:15:47.831Z,89.70
2019-05-23T22:18:36.566Z,90.00
2019-05-23T22:21:25.289Z,90.40
2019-05-23T22:24:15.072Z,90.60
2019-05-23T22:27:06.378Z,90.90
2019-05-23T22:29:55.043Z,91.10
2019-05-23T22:32:44.309Z,90.90
2019-05-23T22:35:32.853Z,90.80
2019-05-23T22:38:21.494Z,91.00
2019-05-23T22:41:10.760Z,91.00
2019-05-23T22:43:59.488Z,90.90
2019-05-23T22:46:48.744Z,90.50
2019-05-23T22:49:37.341Z,90.50
2019-05-23T22:52:25.936Z,90.80
2019-05-23T22:55:14.442Z,90.80
2019-05-23T22:58:03.688Z,91.10
2019-05-23T23:00:52.697Z,91.20
2019-05-23T23:03:41.046Z,91.10
2019-05-23T23:06:29.721Z,91.10
2019-05-23T23:09:18.553Z,90.90
2019-05-23T23:12:07.079Z,91.00
2019-05-23T23:14:55.676Z,91.40
2019-05-23T23:17:44.264Z,91.40
2019-05-23T23:20:32.933Z,91.20
2019-05-23T23:23:21.827Z,91.50
2019-05-23T23:26:10.778Z,91.40
2019-05-23T23:28:59.618Z,91.50
2019-05-23T23:31:48.460Z,91.50
2019-05-23T23:34:37.126Z,91.30
2019-05-23T23:37:26.153Z,91.10
2019-05-23T23:40:15.046Z,90.80
2019-05-23T23:43:03.730Z,90.50
2019-05-23T23:46:10.392Z,90.50
2019-05-23T23:49:16.888Z,90.60
2019-05-23T23:52:23.674Z,90.30
2019-05-23T23:55:30.360Z,90.10
2019-05-23T23:58:18.586Z,90.00
